Falmouth, Pennsylvania
Current Conditions -  °F | °C
As of 2:56 PM on Thursday 23 Oct 2014 (Local Time) from KMDT Reporting Station
Broken Clouds Broken Clouds  
Wind Chill: 61°   Ceiling: 4000
Heat Index: 61°   Visibility: 10mi
Dew Point: 44°   Wind: 23mph
Humidity: 54%   Direction: 330°NNW
Pressure: 29.83"   Gusts: 30mph
Location:  40.1066°N, 76.6626°W
Report Text: KMDT 231856Z 33020G26KT 10SM BKN040 16/07 A2983 RMK AO2 PK WND 33026/1856 SLP102 T01610067
Loading
Personal Weather Stations






























Interactive Weather Map
Tropical Storm Tracking
New forecast layout! Learn more

10-Day Weather Forecast

Advertisements
Track Severe Weather on mobile